Time;durP1;ratioP1;P1;durP2;ratioP2;P2;SDS_P1;SDS_P2;PMS_P1;PMS_P2;Temp;Humidity;BMP_temperature;BMP_pressure;BME280_temperature;BME280_humidity;BME280_pressure;Samples;Min_cycle;Max_cycle;Signal;HPM_P1;HPM_P2
2022/04/23 00:00:50;;;;;;;5.07;4.67;;;;;19.30;99403.00;;;;2078845;28;20209;-47
2022/04/23 00:01:51;;;;;;;4.93;4.53;;;;;19.30;99398.00;;;;2079204;28;20687;-47
2022/04/23 00:02:51;;;;;;;5.30;4.90;;;;;19.30;99408.00;;;;2079356;28;20301;-46
2022/04/23 00:03:51;;;;;;;4.70;4.40;;;;;19.30;99408.00;;;;2079283;28;20233;-47
2022/04/23 00:04:52;;;;;;;4.60;4.30;;;;;19.30;99410.00;;;;2078958;28;20204;-46
2022/04/23 00:05:52;;;;;;;4.80;4.40;;;;;19.30;99407.00;;;;2078551;28;20245;-47
2022/04/23 00:06:52;;;;;;;4.37;4.07;;;;;19.30;99408.00;;;;2079223;28;20205;-47
2022/04/23 00:07:53;;;;;;;4.47;4.17;;;;;19.30;99409.00;;;;2079132;28;20205;-47
2022/04/23 00:08:54;;;;;;;4.43;4.13;;;;;19.30;99408.00;;;;2079307;28;20210;-46
2022/04/23 00:09:54;;;;;;;4.83;4.43;;;;;19.30;99412.00;;;;2079271;28;20223;-47
2022/04/23 00:10:54;;;;;;;4.77;4.47;;;;;19.30;99404.00;;;;2079283;28;20748;-47
2022/04/23 00:11:55;;;;;;;4.60;4.23;;;;;19.30;99402.00;;;;2079066;28;20213;-46
2022/04/23 00:12:56;;;;;;;4.40;4.00;;;;;19.30;99408.00;;;;2078441;28;20271;-46
2022/04/23 00:13:56;;;;;;;4.53;4.17;;;;;19.30;99417.00;;;;2078314;28;20303;-47
2022/04/23 00:14:56;;;;;;;4.80;4.40;;;;;19.20;99417.00;;;;2079335;28;20213;-47
2022/04/23 00:15:57;;;;;;;4.97;4.57;;;;;19.30;99403.00;;;;2078438;28;20218;-47
2022/04/23 00:17:00;;;;;;;4.37;4.07;;;;;19.30;99412.00;;;;2079253;28;20228;-47
2022/04/23 00:18:00;;;;;;;5.25;4.72;;;;;19.30;99420.00;;;;2079402;28;20209;-46
2022/04/23 00:19:00;;;;;;;4.20;3.90;;;;;19.30;99414.00;;;;2078921;28;20706;-47
2022/04/23 00:20:01;;;;;;;4.97;4.60;;;;;19.20;99414.00;;;;2079184;28;20233;-46
2022/04/23 00:21:01;;;;;;;4.70;4.33;;;;;19.30;99414.00;;;;2079293;28;20235;-46
2022/04/23 00:22:02;;;;;;;4.57;4.27;;;;;19.30;99412.00;;;;2079141;28;20668;-46
2022/04/23 00:23:03;;;;;;;4.87;4.50;;;;;19.30;99411.00;;;;2077265;28;20240;-47
2022/04/23 00:24:04;;;;;;;4.72;4.32;;;;;19.30;99410.00;;;;2078489;28;20201;-46
2022/04/23 00:25:04;;;;;;;5.00;4.60;;;;;19.30;99419.00;;;;2078154;28;20411;-46
2022/04/23 00:26:05;;;;;;;4.57;4.20;;;;;19.30;99415.00;;;;2077906;28;20296;-46
2022/04/23 00:27:06;;;;;;;4.77;4.47;;;;;19.30;99421.00;;;;2078365;28;20252;-46
2022/04/23 00:28:06;;;;;;;4.47;4.13;;;;;19.30;99417.00;;;;2079119;28;20214;-48
2022/04/23 00:29:06;;;;;;;4.73;4.33;;;;;19.30;99410.00;;;;2078705;28;20452;-46
2022/04/23 00:30:07;;;;;;;4.93;4.47;;;;;19.30;99418.00;;;;2078786;28;20235;-46
2022/04/23 00:31:07;;;;;;;4.87;4.47;;;;;19.30;99415.00;;;;2079282;28;20209;-46
2022/04/23 00:32:08;;;;;;;4.40;4.10;;;;;19.30;99415.00;;;;2078801;28;20280;-47
2022/04/23 00:33:09;;;;;;;4.67;4.37;;;;;19.30;99417.00;;;;2078908;28;20232;-47
2022/04/23 00:34:10;;;;;;;4.35;4.05;;;;;19.30;99416.00;;;;2078908;28;20206;-46
2022/04/23 00:35:14;;;;;;;5.00;4.55;;;;;19.30;99413.00;;;;2078680;28;20213;-46
2022/04/23 00:36:15;;;;;;;5.30;4.90;;;;;19.30;99414.00;;;;2078192;28;20228;-47
2022/04/23 00:37:16;;;;;;;4.50;4.20;;;;;19.30;99413.00;;;;2079000;28;20217;-46
2022/04/23 00:38:16;;;;;;;4.57;4.17;;;;;19.30;99404.00;;;;2079085;28;20225;-46
2022/04/23 00:39:17;;;;;;;4.47;4.17;;;;;19.20;99408.00;;;;2079041;28;20248;-46
2022/04/23 00:40:17;;;;;;;4.67;4.37;;;;;19.30;99403.00;;;;2078998;28;20304;-46
2022/04/23 00:42:46;;;;;;;4.85;4.50;;;;;19.30;99415.00;;;;2078871;28;20240;-46
2022/04/23 00:43:47;;;;;;;5.10;4.57;;;;;19.20;99332.00;;;;2078925;28;20312;-46
2022/04/23 00:44:48;;;;;;;4.43;4.13;;;;;19.30;99410.00;;;;2078797;28;20228;-47
2022/04/23 00:45:48;;;;;;;5.00;4.60;;;;;19.30;99411.00;;;;2078333;28;20602;-46
2022/04/23 00:46:48;;;;;;;4.50;4.10;;;;;19.20;99410.00;;;;2079040;28;20558;-46
2022/04/23 00:47:49;;;;;;;4.57;4.23;;;;;19.20;99409.00;;;;2078601;28;20645;-46
2022/04/23 00:48:49;;;;;;;4.70;4.30;;;;;19.20;99408.00;;;;2071325;28;20294;-47
2022/04/23 00:49:50;;;;;;;4.70;4.40;;;;;19.20;99414.00;;;;2070755;28;20287;-46
2022/04/23 00:50:55;;;;;;;4.97;4.60;;;;;19.30;99414.00;;;;2070932;28;20273;-46
2022/04/23 00:51:55;;;;;;;4.53;4.22;;;;;19.30;99413.00;;;;2069601;28;20680;-47
2022/04/23 00:52:58;;;;;;;5.07;4.67;;;;;19.30;99386.00;;;;2070171;28;20218;-47
2022/04/23 00:53:59;;;;;;;4.13;3.83;;;;;19.20;99411.00;;;;2070017;28;20214;-46
2022/04/23 00:55:00;;;;;;;4.75;4.45;;;;;19.20;99410.00;;;;2069996;28;20327;-47
2022/04/23 00:56:00;;;;;;;4.53;4.23;;;;;19.30;99406.00;;;;2069299;28;20215;-47
2022/04/23 00:57:00;;;;;;;4.57;4.27;;;;;19.30;99405.00;;;;2061998;28;20708;-47
2022/04/23 00:58:01;;;;;;;4.57;4.20;;;;;19.30;99407.00;;;;2069976;28;20202;-47
2022/04/23 00:59:09;;;;;;;5.00;4.60;;;;;19.20;99403.00;;;;2070509;28;20225;-46
2022/04/23 01:00:09;;;;;;;4.60;4.30;;;;;19.20;99406.00;;;;2075269;28;20743;-46
2022/04/23 01:01:10;;;;;;;5.00;4.50;;;;;19.20;99406.00;;;;2079029;28;20296;-46
2022/04/23 01:02:10;;;;;;;4.47;4.13;;;;;19.20;99406.00;;;;2078721;28;20225;-46
2022/04/23 01:03:12;;;;;;;4.50;4.20;;;;;19.20;99409.00;;;;2078938;28;20209;-46
2022/04/23 01:04:13;;;;;;;4.55;4.20;;;;;19.20;99407.00;;;;2078695;28;20205;-46
2022/04/23 01:05:14;;;;;;;4.50;4.20;;;;;19.20;99404.00;;;;2078810;28;20237;-46
2022/04/23 01:06:14;;;;;;;4.57;4.28;;;;;19.20;99412.00;;;;2077972;28;20202;-47
2022/04/23 01:07:15;;;;;;;4.40;4.10;;;;;19.20;99398.00;;;;2078665;28;20780;-46
2022/04/23 01:08:18;;;;;;;4.63;4.23;;;;;19.20;99406.00;;;;2068493;28;20241;-46
2022/04/23 01:09:18;;;;;;;4.93;4.53;;;;;19.20;99417.00;;;;2070336;28;20222;-46
2022/04/23 01:10:19;;;;;;;4.60;4.30;;;;;19.20;99416.00;;;;2078181;28;20213;-46
2022/04/23 01:11:20;;;;;;;4.40;4.10;;;;;19.20;99415.00;;;;2078057;28;20255;-47
2022/04/23 01:12:20;;;;;;;4.90;4.50;;;;;19.20;99412.00;;;;2078434;28;20240;-46
2022/04/23 01:13:21;;;;;;;4.57;4.27;;;;;19.20;99411.00;;;;2078097;28;20206;-46
2022/04/23 01:14:21;;;;;;;4.07;3.77;;;;;19.20;99349.00;;;;2077922;28;20209;-46
2022/04/23 01:15:21;;;;;;;4.50;4.20;;;;;19.20;99416.00;;;;2078244;28;20635;-46
2022/04/23 01:16:22;;;;;;;4.60;4.30;;;;;19.20;99415.00;;;;2078527;28;20566;-47
2022/04/23 01:17:22;;;;;;;5.00;4.70;;;;;19.20;99408.00;;;;2078535;28;20244;-46
2022/04/23 01:18:22;;;;;;;4.57;4.20;;;;;19.20;99414.00;;;;2078595;28;20209;-46
2022/04/23 01:19:22;;;;;;;4.80;4.40;;;;;19.20;99411.00;;;;2078938;28;20233;-46
2022/04/23 01:20:24;;;;;;;4.30;4.00;;;;;19.20;99411.00;;;;2078843;28;20209;-46
2022/04/23 01:21:24;;;;;;;4.32;4.03;;;;;19.20;99417.00;;;;2078769;28;20229;-46
2022/04/23 01:22:24;;;;;;;4.10;3.80;;;;;19.20;99407.00;;;;2078639;28;20271;-46
2022/04/23 01:23:25;;;;;;;4.57;4.17;;;;;19.20;99416.00;;;;2078811;28;20217;-47
2022/04/23 01:24:25;;;;;;;4.57;4.17;;;;;19.20;99424.00;;;;2078623;28;20228;-46
2022/04/23 01:25:26;;;;;;;4.93;4.53;;;;;19.20;99424.00;;;;2078117;28;20210;-47
2022/04/23 01:26:28;;;;;;;4.63;4.23;;;;;19.20;99419.00;;;;2078637;28;20225;-46
2022/04/23 01:27:29;;;;;;;5.13;4.72;;;;;19.20;99424.00;;;;2078589;28;20224;-46
2022/04/23 01:28:29;;;;;;;4.80;4.40;;;;;19.20;99417.00;;;;2077737;28;20217;-50
2022/04/23 01:29:30;;;;;;;4.73;4.43;;;;;19.20;99424.00;;;;2077930;28;20343;-48
2022/04/23 01:30:31;;;;;;;4.40;4.10;;;;;19.20;99415.00;;;;2075487;28;20214;-48
2022/04/23 01:31:32;;;;;;;4.90;4.50;;;;;19.20;99418.00;;;;2069553;28;20485;-47
2022/04/23 01:32:32;;;;;;;4.57;4.28;;;;;19.20;99413.00;;;;2069764;28;20213;-47
2022/04/23 01:33:33;;;;;;;4.63;4.33;;;;;19.20;99421.00;;;;2070577;28;20843;-46
2022/04/23 01:34:33;;;;;;;4.47;4.07;;;;;19.20;99415.00;;;;2070597;28;20225;-47
2022/04/23 01:35:33;;;;;;;4.70;4.30;;;;;19.20;99419.00;;;;2069765;28;20214;-47
2022/04/23 01:36:34;;;;;;;4.47;4.17;;;;;19.20;99417.00;;;;2070275;28;20214;-47
2022/04/23 01:37:34;;;;;;;5.00;4.70;;;;;19.20;99429.00;;;;2070571;28;20221;-46
2022/04/23 01:38:34;;;;;;;4.70;4.40;;;;;19.20;99411.00;;;;2070688;28;20222;-47
2022/04/23 01:39:35;;;;;;;4.50;4.20;;;;;19.20;99422.00;;;;2070689;28;20210;-46
2022/04/23 01:40:35;;;;;;;4.67;4.37;;;;;19.20;99421.00;;;;2069685;28;20215;-47
2022/04/23 01:41:36;;;;;;;4.27;3.97;;;;;19.20;99415.00;;;;2069454;28;20214;-46
2022/04/23 01:42:36;;;;;;;4.60;4.30;;;;;19.20;99418.00;;;;2070340;28;20218;-46
2022/04/23 01:43:36;;;;;;;4.40;4.10;;;;;19.20;99415.00;;;;2070548;28;20300;-47
2022/04/23 01:44:37;;;;;;;4.53;4.23;;;;;19.20;99419.00;;;;2070561;28;20614;-48
2022/04/23 01:45:37;;;;;;;4.30;4.00;;;;;19.20;99410.00;;;;2069571;28;20812;-46
2022/04/23 01:46:38;;;;;;;4.37;4.07;;;;;19.20;99410.00;;;;2069734;28;20695;-46
2022/04/23 01:47:38;;;;;;;4.90;4.50;;;;;19.20;99408.00;;;;2069598;28;20213;-47
2022/04/23 01:48:38;;;;;;;4.80;4.40;;;;;19.20;99411.00;;;;2070391;28;20767;-46
2022/04/23 01:49:39;;;;;;;4.60;4.30;;;;;19.20;99410.00;;;;2069882;28;20222;-47
2022/04/23 01:50:39;;;;;;;5.00;4.70;;;;;19.20;99344.00;;;;2067461;28;20210;-45
2022/04/23 01:51:39;;;;;;;4.83;4.50;;;;;19.20;99415.00;;;;2068122;28;20640;-46
2022/04/23 01:52:40;;;;;;;4.83;4.43;;;;;19.20;99410.00;;;;2070469;28;20248;-47
2022/04/23 01:53:40;;;;;;;5.63;5.23;;;;;19.20;99412.00;;;;2070191;28;20292;-46
2022/04/23 01:54:40;;;;;;;4.53;4.23;;;;;19.20;99416.00;;;;2070694;28;20233;-47
2022/04/23 01:55:41;;;;;;;4.60;4.30;;;;;19.20;99410.00;;;;2069728;28;20233;-46
2022/04/23 01:56:41;;;;;;;5.10;4.70;;;;;19.20;99412.00;;;;2069898;28;20221;-47
2022/04/23 01:57:41;;;;;;;4.40;4.10;;;;;19.20;99412.00;;;;2069685;28;20216;-45
2022/04/23 01:58:42;;;;;;;4.50;4.20;;;;;19.20;99411.00;;;;2070554;28;20206;-46
2022/04/23 01:59:42;;;;;;;5.50;5.10;;;;;19.20;99405.00;;;;2070567;28;20237;-47
2022/04/23 02:00:44;;;;;;;4.50;4.20;;;;;19.20;99414.00;;;;2070490;28;20238;-46
2022/04/23 02:01:44;;;;;;;4.53;4.22;;;;;19.20;99407.00;;;;2070469;28;20288;-46
2022/04/23 02:02:44;;;;;;;4.93;4.60;;;;;19.20;99419.00;;;;2070409;28;20225;-46
2022/04/23 02:03:51;;;;;;;5.10;4.70;;;;;19.20;99414.00;;;;2070771;28;20226;-47
2022/04/23 02:04:52;;;;;;;4.85;4.45;;;;;19.20;99413.00;;;;2070488;28;20218;-46
2022/04/23 02:05:52;;;;;;;4.50;4.20;;;;;19.20;99413.00;;;;2069758;28;20202;-46
2022/04/23 02:06:53;;;;;;;4.57;4.17;;;;;19.20;99415.00;;;;2070599;28;20198;-46
2022/04/23 02:07:53;;;;;;;4.60;4.30;;;;;19.20;99421.00;;;;2070547;28;20267;-47
2022/04/23 02:08:54;;;;;;;5.03;4.63;;;;;19.20;99433.00;;;;2070653;28;20504;-47
2022/04/23 02:09:54;;;;;;;5.07;4.67;;;;;19.20;99415.00;;;;2070489;28;20221;-45
2022/04/23 02:10:54;;;;;;;5.00;4.60;;;;;19.20;99425.00;;;;2070693;28;20268;-46
2022/04/23 02:11:56;;;;;;;5.20;4.90;;;;;19.20;99424.00;;;;2070482;28;20230;-46
2022/04/23 02:12:57;;;;;;;4.78;4.47;;;;;19.20;99416.00;;;;2070360;28;20234;-46
2022/04/23 02:13:58;;;;;;;4.70;4.30;;;;;19.20;99409.00;;;;2070663;28;20558;-47
2022/04/23 02:14:58;;;;;;;4.70;4.37;;;;;19.20;99419.00;;;;2070504;28;20301;-45
2022/04/23 02:15:58;;;;;;;5.00;4.60;;;;;19.20;99421.00;;;;2069752;28;20245;-46
2022/04/23 02:16:59;;;;;;;5.17;4.77;;;;;19.20;99421.00;;;;2070824;28;20221;-46
2022/04/23 02:18:00;;;;;;;4.77;4.37;;;;;19.20;99419.00;;;;2071083;28;20260;-46
2022/04/23 02:19:03;;;;;;;5.47;5.07;;;;;19.20;99359.00;;;;2078788;28;20293;-47
2022/04/23 02:20:04;;;;;;;5.00;4.60;;;;;19.20;99414.00;;;;2078839;28;20213;-46
2022/04/23 02:21:05;;;;;;;4.80;4.45;;;;;19.20;99421.00;;;;2078827;28;20205;-46
2022/04/23 02:22:05;;;;;;;5.03;4.63;;;;;19.20;99419.00;;;;2078013;28;20716;-46
2022/04/23 02:23:06;;;;;;;5.00;4.60;;;;;19.20;99421.00;;;;2078447;28;20256;-46
2022/04/23 02:24:08;;;;;;;5.13;4.73;;;;;19.20;99425.00;;;;2078921;28;20701;-46
2022/04/23 02:25:08;;;;;;;5.00;4.60;;;;;19.20;99419.00;;;;2077566;28;20224;-48
2022/04/23 02:26:09;;;;;;;4.87;4.57;;;;;19.20;99423.00;;;;2072394;28;20217;-48
2022/04/23 02:27:09;;;;;;;5.10;4.70;;;;;19.20;99423.00;;;;2070405;28;20214;-46
2022/04/23 02:28:09;;;;;;;5.13;4.73;;;;;19.20;99423.00;;;;2070215;28;20289;-46
2022/04/23 02:29:11;;;;;;;5.20;4.80;;;;;19.20;99416.00;;;;2070360;28;20214;-47
2022/04/23 02:30:12;;;;;;;5.10;4.70;;;;;19.20;99417.00;;;;2070165;28;20615;-46
2022/04/23 02:31:12;;;;;;;4.85;4.47;;;;;19.20;99421.00;;;;2070586;28;20217;-46
2022/04/23 02:32:13;;;;;;;5.00;4.60;;;;;19.20;99416.00;;;;2070377;28;20644;-47
2022/04/23 02:33:14;;;;;;;4.70;4.40;;;;;19.20;99417.00;;;;2070271;28;20213;-47
2022/04/23 02:34:14;;;;;;;4.78;4.40;;;;;19.20;99424.00;;;;2069818;28;20699;-47
2022/04/23 02:35:16;;;;;;;5.17;4.77;;;;;19.20;99413.00;;;;2070276;28;20210;-47
2022/04/23 02:36:16;;;;;;;5.07;4.68;;;;;19.20;99416.00;;;;2069887;28;20237;-47
2022/04/23 02:37:17;;;;;;;4.60;4.20;;;;;19.20;99423.00;;;;2070330;28;20265;-47
2022/04/23 02:38:18;;;;;;;4.50;4.20;;;;;19.20;99428.00;;;;2074816;28;20241;-46
2022/04/23 02:39:18;;;;;;;4.50;4.20;;;;;19.20;99421.00;;;;2078272;28;20213;-47
2022/04/23 02:40:18;;;;;;;5.07;4.67;;;;;19.20;99421.00;;;;2078410;28;20221;-46
2022/04/23 02:41:19;;;;;;;5.40;5.00;;;;;19.20;99420.00;;;;2078613;28;20243;-47
2022/04/23 02:42:19;;;;;;;5.10;4.60;;;;;19.20;99423.00;;;;2078525;28;20390;-47
2022/04/23 02:43:20;;;;;;;4.70;4.30;;;;;19.20;99425.00;;;;2078479;28;20221;-46
2022/04/23 02:44:20;;;;;;;4.77;4.37;;;;;19.20;99422.00;;;;2078377;28;20529;-46
2022/04/23 02:45:20;;;;;;;5.33;4.83;;;;;19.20;99420.00;;;;2070967;28;20214;-47
2022/04/23 02:46:21;;;;;;;4.73;4.43;;;;;19.20;99426.00;;;;2070302;28;20210;-47
2022/04/23 02:47:21;;;;;;;5.27;4.83;;;;;19.20;99428.00;;;;2070270;28;20210;-46
2022/04/23 02:48:22;;;;;;;4.47;4.17;;;;;19.20;99422.00;;;;2070936;28;20328;-47
2022/04/23 02:49:22;;;;;;;4.70;4.30;;;;;19.20;99429.00;;;;2071598;28;20577;-46
2022/04/23 02:50:41;;;;;;;5.03;4.70;;;;;19.20;99426.00;;;;2071965;28;20214;-47
2022/04/23 02:51:42;;;;;;;4.88;4.47;;;;;19.20;99429.00;;;;2061383;28;20301;-48
2022/04/23 02:52:43;;;;;;;4.83;4.43;;;;;19.20;99427.00;;;;2071284;28;20601;-47
2022/04/23 02:53:43;;;;;;;5.45;5.05;;;;;19.20;99423.00;;;;2071815;28;20449;-47
2022/04/23 02:54:44;;;;;;;4.87;4.47;;;;;19.20;99425.00;;;;2069259;28;20221;-47
2022/04/23 02:55:46;;;;;;;4.80;4.50;;;;;19.20;99430.00;;;;2086862;28;20213;-47
2022/04/23 02:56:46;;;;;;;4.70;4.40;;;;;19.20;99433.00;;;;2079620;28;20218;-46
2022/04/23 02:57:47;;;;;;;4.70;4.40;;;;;19.20;99426.00;;;;2079978;28;20216;-45
2022/04/23 02:58:47;;;;;;;5.70;5.30;;;;;19.20;99427.00;;;;2080025;28;20305;-47
2022/04/23 02:59:47;;;;;;;5.60;5.10;;;;;19.20;99418.00;;;;2080061;28;20682;-47
2022/04/23 03:00:48;;;;;;;5.00;4.60;;;;;19.20;99426.00;;;;2079874;28;20202;-47
2022/04/23 03:01:48;;;;;;;5.30;4.80;;;;;19.20;99417.00;;;;2079936;28;20213;-47
2022/04/23 03:02:48;;;;;;;4.70;4.40;;;;;19.20;99424.00;;;;2078598;28;20206;-46
2022/04/23 03:03:50;;;;;;;4.97;4.57;;;;;19.20;99421.00;;;;2079907;28;20210;-45
2022/04/23 03:04:50;;;;;;;4.72;4.43;;;;;19.20;99429.00;;;;2079655;28;20212;-45
2022/04/23 03:05:51;;;;;;;5.37;4.97;;;;;19.20;99426.00;;;;2072428;28;20256;-47
2022/04/23 03:06:53;;;;;;;5.30;4.90;;;;;19.20;99424.00;;;;2079789;28;20218;-47
2022/04/23 03:07:54;;;;;;;4.80;4.50;;;;;19.20;99427.00;;;;2079849;28;20877;-47
2022/04/23 03:08:56;;;;;;;5.47;5.07;;;;;19.20;99424.00;;;;2079600;28;20209;-47
2022/04/23 03:09:56;;;;;;;5.00;4.60;;;;;19.20;99416.00;;;;2079845;28;20263;-46
2022/04/23 03:10:56;;;;;;;5.27;4.87;;;;;19.20;99412.00;;;;2073695;28;20300;-46
2022/04/23 03:11:57;;;;;;;5.10;4.70;;;;;19.20;99420.00;;;;2071744;28;20218;-46
2022/04/23 03:12:57;;;;;;;5.20;4.80;;;;;19.20;99427.00;;;;2071359;28;20214;-47
2022/04/23 03:14:03;;;;;;;5.13;4.77;;;;;19.20;99416.00;;;;2071195;28;20581;-47
2022/04/23 03:15:05;;;;;;;5.47;5.07;;;;;19.20;99411.00;;;;2070885;28;20249;-47
2022/04/23 03:16:06;;;;;;;5.10;4.70;;;;;19.20;99412.00;;;;2070162;28;20214;-46
2022/04/23 03:17:06;;;;;;;5.30;4.90;;;;;19.20;99416.00;;;;2071522;28;20219;-47
2022/04/23 03:18:08;;;;;;;5.40;5.00;;;;;19.10;99424.00;;;;2071741;28;20210;-46
2022/04/23 03:19:08;;;;;;;4.93;4.55;;;;;19.20;99418.00;;;;2071656;28;20224;-46
2022/04/23 03:20:09;;;;;;;5.23;4.83;;;;;19.20;99424.00;;;;2071431;28;20214;-47
2022/04/23 03:21:10;;;;;;;5.00;4.50;;;;;19.20;99416.00;;;;2066593;28;20225;-46
2022/04/23 03:22:10;;;;;;;5.10;4.70;;;;;19.20;99421.00;;;;2071864;28;20583;-46
2022/04/23 03:23:12;;;;;;;4.77;4.37;;;;;19.20;99392.00;;;;2078893;28;20217;-45
2022/04/23 03:24:12;;;;;;;5.20;4.80;;;;;19.20;99415.00;;;;2078389;28;20241;-47
2022/04/23 03:25:12;;;;;;;4.77;4.40;;;;;19.20;99420.00;;;;2070360;28;20215;-46
2022/04/23 03:26:13;;;;;;;5.33;4.93;;;;;19.20;99414.00;;;;2077548;28;20265;-47
2022/04/23 03:27:13;;;;;;;5.27;4.87;;;;;19.20;99420.00;;;;2078950;28;20832;-46
2022/04/23 03:28:14;;;;;;;5.70;5.30;;;;;19.20;99411.00;;;;2078159;28;20213;-47
2022/04/23 03:29:14;;;;;;;4.78;4.38;;;;;19.10;99416.00;;;;2077520;28;20237;-46
2022/04/23 03:30:15;;;;;;;5.17;4.77;;;;;19.20;99414.00;;;;2079746;28;20771;-46
2022/04/23 03:31:15;;;;;;;5.40;5.00;;;;;19.10;99416.00;;;;2080093;28;20686;-47
2022/04/23 03:32:16;;;;;;;4.80;4.40;;;;;19.20;99418.00;;;;2079604;28;20229;-47
2022/04/23 03:33:16;;;;;;;5.37;4.97;;;;;19.10;99406.00;;;;2079664;28;20244;-47
2022/04/23 03:34:18;;;;;;;6.00;5.50;;;;;19.20;99419.00;;;;2079828;28;20221;-46
2022/04/23 03:35:19;;;;;;;5.30;4.90;;;;;19.10;99403.00;;;;2078964;28;20229;-47
2022/04/23 03:36:19;;;;;;;4.83;4.43;;;;;19.20;99410.00;;;;2079441;28;20304;-46
2022/04/23 03:37:20;;;;;;;5.47;5.07;;;;;19.20;99404.00;;;;2079446;28;20453;-46
2022/04/23 03:38:20;;;;;;;5.33;4.93;;;;;19.20;99408.00;;;;2079684;28;20271;-46
2022/04/23 03:39:20;;;;;;;5.60;5.20;;;;;19.20;99406.00;;;;2079298;28;20209;-47
2022/04/23 03:40:20;;;;;;;5.63;5.23;;;;;19.20;99408.00;;;;2079481;28;20612;-46
2022/04/23 03:41:21;;;;;;;4.80;4.47;;;;;19.20;99402.00;;;;2079665;28;20763;-46
2022/04/23 03:42:21;;;;;;;5.30;4.90;;;;;19.20;99407.00;;;;2079451;28;20698;-46
2022/04/23 03:43:25;;;;;;;4.67;4.37;;;;;19.20;99397.00;;;;2079480;28;20712;-45
2022/04/23 03:44:25;;;;;;;4.80;4.40;;;;;19.20;99401.00;;;;2079311;28;20272;-45
2022/04/23 03:45:26;;;;;;;5.23;4.83;;;;;19.10;99399.00;;;;2078079;28;20300;-45
2022/04/23 03:46:26;;;;;;;5.43;5.03;;;;;19.20;99401.00;;;;2079211;28;20217;-46
2022/04/23 03:47:26;;;;;;;5.50;5.10;;;;;19.20;99407.00;;;;2079376;28;20221;-48
2022/04/23 03:48:27;;;;;;;5.07;4.67;;;;;19.10;99402.00;;;;2079427;28;20244;-45
2022/04/23 03:49:28;;;;;;;5.10;4.80;;;;;19.20;99399.00;;;;2079380;28;20218;-47
2022/04/23 03:50:29;;;;;;;5.35;4.95;;;;;19.10;99409.00;;;;2079561;28;20259;-45
2022/04/23 03:51:30;;;;;;;5.43;5.03;;;;;19.20;99409.00;;;;2079254;28;20218;-46
2022/04/23 03:52:30;;;;;;;5.30;4.90;;;;;19.10;99407.00;;;;2079439;28;20468;-45
2022/04/23 03:53:30;;;;;;;5.40;5.00;;;;;19.20;99400.00;;;;2079286;28;20260;-48
2022/04/23 03:54:31;;;;;;;5.27;4.87;;;;;19.20;99396.00;;;;2079206;28;20254;-46
2022/04/23 03:55:31;;;;;;;5.10;4.70;;;;;19.20;99396.00;;;;2078775;28;20217;-46
2022/04/23 03:56:31;;;;;;;5.70;5.30;;;;;19.10;99397.00;;;;2079170;28;20367;-45
2022/04/23 03:57:41;;;;;;;5.40;5.00;;;;;19.10;99397.00;;;;2078898;28;20263;-46
2022/04/23 03:58:42;;;;;;;5.22;4.82;;;;;19.10;99401.00;;;;2078479;28;20826;-47
2022/04/23 03:59:43;;;;;;;5.10;4.70;;;;;19.20;99398.00;;;;2078420;28;20620;-46
2022/04/23 04:00:43;;;;;;;5.80;5.30;;;;;19.10;99391.00;;;;2079341;28;20214;-45
2022/04/23 04:01:43;;;;;;;5.70;5.30;;;;;19.10;99395.00;;;;2079059;28;20218;-45
2022/04/23 04:02:44;;;;;;;5.57;5.07;;;;;19.10;99397.00;;;;2078962;28;20251;-45
2022/04/23 04:03:44;;;;;;;5.07;4.70;;;;;19.10;99400.00;;;;2078782;28;20217;-47
2022/04/23 04:04:44;;;;;;;5.43;5.03;;;;;19.10;99396.00;;;;2079275;28;20233;-47
2022/04/23 04:05:47;;;;;;;5.40;5.00;;;;;19.10;99395.00;;;;2078585;28;20223;-48
2022/04/23 04:06:47;;;;;;;5.60;5.20;;;;;19.10;99392.00;;;;2079377;28;20225;-45
2022/04/23 04:07:48;;;;;;;5.10;4.70;;;;;19.10;99397.00;;;;2079041;28;20213;-45
2022/04/23 04:08:50;;;;;;;5.33;5.00;;;;;19.10;99396.00;;;;2079206;28;20318;-48
2022/04/23 04:09:50;;;;;;;5.72;5.22;;;;;19.10;99394.00;;;;2079304;28;20237;-45
2022/04/23 04:10:50;;;;;;;4.80;4.50;;;;;19.10;99395.00;;;;2079388;28;20218;-48
2022/04/23 04:12:03;;;;;;;5.30;4.80;;;;;19.10;99393.00;;;;2079110;28;20570;-46
2022/04/23 04:13:03;;;;;;;5.72;5.22;;;;;19.10;99398.00;;;;2079012;28;20260;-45
2022/04/23 04:14:04;;;;;;;5.10;4.70;;;;;19.10;99393.00;;;;2079324;28;20213;-46
2022/04/23 04:15:05;;;;;;;5.43;5.03;;;;;19.20;99395.00;;;;2079266;28;20224;-45
2022/04/23 04:16:06;;;;;;;5.30;4.90;;;;;19.10;99409.00;;;;2078556;28;20227;-46
2022/04/23 04:17:09;;;;;;;5.80;5.30;;;;;19.10;99393.00;;;;2079204;28;20646;-47
2022/04/23 04:18:10;;;;;;;5.55;5.15;;;;;19.20;99392.00;;;;2078379;28;20460;-45
2022/04/23 04:19:12;;;;;;;5.28;4.88;;;;;19.20;99397.00;;;;2070472;28;20962;-48
2022/04/23 04:20:12;;;;;;;5.18;4.78;;;;;19.10;99393.00;;;;2078208;28;20693;-45
2022/04/23 04:21:13;;;;;;;5.47;5.07;;;;;19.10;99390.00;;;;2079215;28;20222;-46
2022/04/23 04:22:14;;;;;;;5.37;4.97;;;;;19.10;99388.00;;;;2070204;28;20215;-46
2022/04/23 04:23:15;;;;;;;5.70;5.30;;;;;19.10;99390.00;;;;2070217;28;20218;-45
2022/04/23 04:24:16;;;;;;;5.50;5.10;;;;;19.10;99386.00;;;;2078924;28;20213;-45
2022/04/23 04:25:17;;;;;;;5.37;4.97;;;;;19.10;99384.00;;;;2077384;28;20476;-46
2022/04/23 04:26:17;;;;;;;5.55;5.15;;;;;19.10;99381.00;;;;2069743;28;20228;-46
2022/04/23 04:27:18;;;;;;;5.70;5.30;;;;;19.10;99383.00;;;;2078140;28;20229;-46
2022/04/23 04:28:18;;;;;;;6.00;5.60;;;;;19.10;99383.00;;;;2079114;28;20229;-47
2022/04/23 04:29:19;;;;;;;5.77;5.37;;;;;19.10;99382.00;;;;2079100;28;20225;-47
2022/04/23 04:30:19;;;;;;;5.50;5.10;;;;;19.10;99385.00;;;;2070216;28;20210;-46
2022/04/23 04:32:39;;;;;;;5.65;5.25;;;;;19.10;99387.00;;;;2072945;28;20218;-46
2022/04/23 04:33:39;;;;;;;5.60;5.20;;;;;19.10;99383.00;;;;2070800;28;20217;-46
2022/04/23 04:34:39;;;;;;;5.50;5.10;;;;;19.10;99395.00;;;;2077145;28;20692;-46
2022/04/23 04:35:40;;;;;;;5.80;5.33;;;;;19.10;99390.00;;;;2078374;28;20723;-47
2022/04/23 04:36:40;;;;;;;5.60;5.20;;;;;19.10;99386.00;;;;2079084;28;20320;-47
2022/04/23 04:37:40;;;;;;;5.57;5.17;;;;;19.10;99383.00;;;;2078917;28;20723;-46
2022/04/23 04:38:41;;;;;;;6.20;5.70;;;;;19.10;99379.00;;;;2073251;28;20620;-46
2022/04/23 04:39:41;;;;;;;5.77;5.37;;;;;19.10;99374.00;;;;2070979;28;20214;-47
2022/04/23 04:40:42;;;;;;;5.70;5.30;;;;;19.10;99389.00;;;;2070463;28;20245;-46
2022/04/23 04:41:42;;;;;;;5.47;5.07;;;;;19.10;99385.00;;;;2070691;28;20485;-46
2022/04/23 04:42:43;;;;;;;5.67;5.27;;;;;19.10;99378.00;;;;2070801;28;20638;-46
2022/04/23 04:43:43;;;;;;;6.10;5.60;;;;;19.10;99387.00;;;;2069960;28;20225;-46
2022/04/23 04:44:43;;;;;;;5.97;5.47;;;;;19.10;99384.00;;;;2071031;28;20339;-46
2022/04/23 04:45:44;;;;;;;5.63;5.23;;;;;19.10;99388.00;;;;2078235;28;20690;-46
2022/04/23 04:46:44;;;;;;;5.80;5.40;;;;;19.10;99387.00;;;;2079097;28;20747;-46
2022/04/23 04:47:44;;;;;;;5.93;5.53;;;;;19.10;99378.00;;;;2079023;28;20675;-46
2022/04/23 04:48:45;;;;;;;6.00;5.60;;;;;19.10;99376.00;;;;2078937;28;20959;-46
2022/04/23 04:49:45;;;;;;;5.47;5.07;;;;;19.10;99383.00;;;;2078879;28;20270;-47
2022/04/23 04:50:45;;;;;;;5.90;5.40;;;;;19.10;99378.00;;;;2078783;28;20205;-47
2022/04/23 04:51:46;;;;;;;5.47;5.07;;;;;19.10;99382.00;;;;2070021;28;20776;-48
2022/04/23 04:52:46;;;;;;;6.53;5.40;;;;;19.10;99369.00;;;;2070060;28;20233;-46
2022/04/23 04:53:46;;;;;;;5.70;5.20;;;;;19.10;99386.00;;;;2078775;28;20243;-47
2022/04/23 04:54:47;;;;;;;5.43;5.00;;;;;19.10;99382.00;;;;2078882;28;20229;-46
2022/04/23 04:55:47;;;;;;;5.60;5.20;;;;;19.10;99382.00;;;;2075980;28;20221;-46
2022/04/23 04:56:48;;;;;;;6.10;5.60;;;;;19.10;99386.00;;;;2070844;28;20299;-46
2022/04/23 04:57:49;;;;;;;5.50;5.10;;;;;19.10;99388.00;;;;2075084;28;20732;-46
2022/04/23 04:58:50;;;;;;;5.30;4.90;;;;;19.10;99386.00;;;;2079015;28;20213;-46
2022/04/23 04:59:50;;;;;;;5.37;4.97;;;;;19.10;99383.00;;;;2079077;28;20506;-46
2022/04/23 05:00:50;;;;;;;5.53;5.13;;;;;19.10;99403.00;;;;2078777;28;20690;-46
2022/04/23 05:01:51;;;;;;;5.70;5.20;;;;;19.10;99384.00;;;;2078780;28;20246;-47
2022/04/23 05:02:51;;;;;;;5.43;5.03;;;;;19.10;99382.00;;;;2079004;28;20210;-46
2022/04/23 05:03:53;;;;;;;6.17;5.77;;;;;19.10;99388.00;;;;2078726;28;20213;-46
2022/04/23 05:04:53;;;;;;;5.60;5.20;;;;;19.10;99390.00;;;;2075788;28;20221;-47
2022/04/23 05:05:54;;;;;;;5.47;5.07;;;;;19.10;99392.00;;;;2070047;28;20229;-46
2022/04/23 05:06:54;;;;;;;5.80;5.40;;;;;19.10;99392.00;;;;2070666;28;20303;-48
2022/04/23 05:07:55;;;;;;;5.73;5.33;;;;;19.10;99383.00;;;;2069449;28;20214;-47